• Join FlightAware (Why Join?)
  • Login
  • US Flag 
06:27PM EDT


 

Airport Tracker/Info


-or-


 

Live Flight TrackerFlight Track Log ✈ KAP42 ✈ 25-Jul-2013 ✈ KMVY - KPVD

Flight Track Log - Related Links

Times and Time Zones

All times are in EDT time to prevent confusion due to time zone crossing. See the KAP42 flight status page for this flight to view local times or setup timezone preferences in your user account.

Time Position Orientation Groundspeed Altitude Reporting Facility
EDT Latitude Longitude Course Direction KTS MPH feet Rate Location/Type
07:01PM 41.4689 -70.7667 294° West 153 176 4,000  Level Boston Center
07:02PM 41.4886 -70.8244 295° West 176 203 3,900 -60 Descending Boston Center
07:03PM 41.5058 -70.8767 294° West 168 193 3,900  Level Boston Center
07:04PM 41.4690 -70.7904 294° West  Level FlightAware Approximate
07:04PM 41.5275 -70.9372 296° West 168 193 3,900  Level Boston Center
07:05PM 41.4803 -70.8242 294° West  Level FlightAware Approximate
07:05PM 41.5469 -70.9894 296° West 166 191 3,900  Level Boston Center
07:06PM 41.4898 -70.8590 288° West  Level FlightAware Approximate
07:06PM 41.5667 -71.0500 294° West 167 192 3,900  Level Boston Center
07:07PM 41.5881 -71.1050 297° West 165 190 3,900  Level Boston Center
07:08PM 41.6094 -71.1600 297° West 163 188 3,900  Level Boston Center
07:09PM 41.6289 -71.2069 299° West 162 186 3,900  Level Boston Center
07:10PM 41.6503 -71.2594 299° West 164 189 3,900  Level Boston Center
07:11PM 41.6569 -71.3175 279° West 168 193 3,900  Level Boston Center
07:12PM 41.6117 -71.3628 217° Southwest 171 197 3,900  Level Boston Center
07:13PM 41.5744 -71.3994 216° Southwest 171 197 3,900  Level Boston Center
07:14PM 41.5414 -71.4389 222° Southwest 173 199 3,900 -300 Level Boston Center
07:15PM 41.5564 -71.4858 293° West 179 206 3,400 -780 Descending Boston Center
07:17PM 41.6089 -71.5267 330° Northwest 153 176 2,100 -660 Descending Boston Center
07:18PM 41.6419 -71.4983 33° Northeast 112 129 1,800 -420 Descending Boston Center
07:18PM 41.6544 -71.4844 40° Northeast 101 116 1,400 -600 Descending Boston Center
07:19PM 41.6792 -71.4644 31° Northeast 108 124 900 -600 Descending Boston Center
07:21PM 41.7083 -71.4389 33° Northeast 109 125 200 -660 Descending Boston Center